Orlando, Florida
Current Conditions -  °F | °C
As of 8:53 AM on Sunday 21 Dec 2014 (Local Time) from KORL Reporting Station
Clear Clear  
Wind Chill: 67°   Ceiling: Unl
Heat Index: 67°   Visibility: 10mi
Dew Point: 63°   Wind: 5mph
Humidity: 87%   Direction: 190°S
Pressure: 30.11"   Gusts: NA
Location:  28.54°N, 81.38°W
Report Text: KORL 211353Z 19004KT 10SM CLR 19/17 A3011 RMK AO2 SLP201 T01940172
Loading
Personal Weather Stations






























Interactive Weather Map New forecast layout! Learn more

10-Day Weather Forecast

Advertisements
Track Severe Weather on mobile